createdAt,value
2022-09-20T00:00:44.014Z,5.70
2022-09-20T00:01:43.994Z,6.30
2022-09-20T00:02:43.932Z,6.70
2022-09-20T00:03:43.943Z,6.80
2022-09-20T00:04:43.961Z,9.20
2022-09-20T00:05:43.902Z,6.20
2022-09-20T00:06:43.902Z,4.00
2022-09-20T00:07:43.874Z,6.00
2022-09-20T00:08:43.889Z,5.90
2022-09-20T00:09:44.186Z,7.40
2022-09-20T00:10:43.843Z,8.90
2022-09-20T00:11:43.838Z,5.80
2022-09-20T00:12:43.837Z,9.00
2022-09-20T00:13:43.813Z,6.70
2022-09-20T00:14:43.794Z,7.70
2022-09-20T00:15:44.093Z,6.40
2022-09-20T00:16:43.809Z,8.10
2022-09-20T00:17:43.763Z,8.70
2022-09-20T00:18:43.753Z,8.50
2022-09-20T00:19:43.735Z,7.80
2022-09-20T00:20:43.739Z,7.50
2022-09-20T00:21:43.783Z,8.30
2022-09-20T00:22:43.718Z,6.20
2022-09-20T00:23:43.707Z,7.10
2022-09-20T00:24:48.761Z,7.70
2022-09-20T00:25:44.657Z,6.00
2022-09-20T00:26:43.657Z,7.00
2022-09-20T00:27:43.837Z,8.10
2022-09-20T00:28:43.627Z,6.60
2022-09-20T00:29:43.631Z,10.70
2022-09-20T00:30:43.625Z,7.00
2022-09-20T00:31:43.913Z,6.90
2022-09-20T00:32:43.601Z,9.30
2022-09-20T00:33:43.569Z,6.60
2022-09-20T00:34:43.559Z,5.20
2022-09-20T00:35:43.548Z,8.60
2022-09-20T00:36:43.840Z,6.10
2022-09-20T00:37:43.540Z,6.40
2022-09-20T00:38:43.533Z,7.80
2022-09-20T00:39:43.523Z,7.90
2022-09-20T00:40:43.533Z,10.20
2022-09-20T00:41:43.501Z,7.20
2022-09-20T00:42:43.761Z,7.10
2022-09-20T00:43:43.775Z,7.90
2022-09-20T00:44:43.448Z,8.80
2022-09-20T00:45:43.479Z,7.40
2022-09-20T00:46:43.420Z,6.80
2022-09-20T00:47:43.403Z,8.20
2022-09-20T00:48:43.406Z,5.90
2022-09-20T00:49:43.601Z,7.00
2022-09-20T00:50:43.394Z,7.30
2022-09-20T00:51:43.361Z,8.50
2022-09-20T00:52:43.366Z,8.00
2022-09-20T00:53:43.369Z,7.70
2022-09-20T00:54:43.324Z,9.60
2022-09-20T00:55:43.312Z,5.70
2022-09-20T00:56:43.312Z,6.10
2022-09-20T00:57:43.296Z,7.10
2022-09-20T00:58:43.296Z,7.30
2022-09-20T00:59:43.583Z,6.80
2022-09-20T01:00:43.349Z,9.10
2022-09-20T01:01:43.327Z,9.60
2022-09-20T01:02:43.318Z,6.50
2022-09-20T01:03:43.228Z,7.20
2022-09-20T01:04:43.446Z,7.20
2022-09-20T01:05:43.195Z,9.30
2022-09-20T01:06:43.207Z,6.60
2022-09-20T01:07:43.174Z,8.10
2022-09-20T01:08:43.181Z,6.90
2022-09-20T01:09:43.151Z,8.40
2022-09-20T01:10:43.446Z,7.10
2022-09-20T01:11:43.142Z,6.80
2022-09-20T01:12:43.117Z,6.80
2022-09-20T01:13:43.120Z,8.00
2022-09-20T01:14:43.101Z,6.50
2022-09-20T01:15:43.093Z,10.00
2022-09-20T01:16:43.332Z,5.50
2022-09-20T01:17:43.070Z,6.30
2022-09-20T01:18:43.057Z,9.00
2022-09-20T01:19:43.052Z,5.60
2022-09-20T01:20:43.029Z,5.80
2022-09-20T01:21:43.230Z,5.60
2022-09-20T01:22:43.012Z,5.30
2022-09-20T01:23:43.004Z,6.30
2022-09-20T01:24:42.979Z,8.00
2022-09-20T01:25:42.965Z,6.70
2022-09-20T01:26:42.958Z,6.10
2022-09-20T01:27:42.981Z,8.10
2022-09-20T01:28:42.938Z,6.40
2022-09-20T01:29:42.933Z,6.90
2022-09-20T01:30:43.193Z,8.30
2022-09-20T01:31:42.954Z,8.20
2022-09-20T01:32:42.895Z,10.00
2022-09-20T01:33:42.871Z,8.50
2022-09-20T01:34:42.861Z,6.00
2022-09-20T01:35:42.886Z,7.20
2022-09-20T01:36:42.833Z,8.90
2022-09-20T01:37:42.824Z,8.60
2022-09-20T01:38:42.834Z,4.70
2022-09-20T01:39:42.792Z,6.10
2022-09-20T01:40:42.847Z,6.40
2022-09-20T01:41:43.103Z,7.00
2022-09-20T01:42:42.783Z,7.20
2022-09-20T01:43:42.768Z,6.80
2022-09-20T01:44:42.756Z,7.40
2022-09-20T01:45:42.832Z,8.70
2022-09-20T01:46:43.015Z,8.80
2022-09-20T01:47:42.718Z,6.60
2022-09-20T01:48:42.717Z,6.40
2022-09-20T01:49:42.700Z,7.40
2022-09-20T01:50:42.674Z,7.40
2022-09-20T01:51:42.655Z,7.00
2022-09-20T01:52:42.665Z,6.40
2022-09-20T01:53:42.662Z,7.20
2022-09-20T01:54:42.624Z,9.20
2022-09-20T01:55:42.631Z,8.00
2022-09-20T01:56:42.618Z,7.50
2022-09-20T01:57:42.609Z,5.50
2022-09-20T01:58:42.596Z,6.50
2022-09-20T01:59:42.578Z,6.60
2022-09-20T02:00:42.866Z,6.70
2022-09-20T02:01:42.547Z,8.90
2022-09-20T02:02:42.914Z,9.00
2022-09-20T02:03:42.536Z,6.60
2022-09-20T02:04:42.521Z,6.60
2022-09-20T02:05:42.795Z,7.70
2022-09-20T02:06:42.501Z,4.70
2022-09-20T02:07:42.490Z,8.00
2022-09-20T02:08:42.658Z,9.80
2022-09-20T02:09:42.462Z,7.10
2022-09-20T02:10:42.762Z,6.80
2022-09-20T02:11:42.443Z,7.10
2022-09-20T02:12:42.690Z,7.00
2022-09-20T02:13:42.422Z,8.60
2022-09-20T02:14:42.390Z,10.40
2022-09-20T02:15:42.379Z,7.10
2022-09-20T02:16:42.477Z,7.40
2022-09-20T02:17:42.675Z,6.30
2022-09-20T02:18:42.351Z,7.40
2022-09-20T02:19:42.344Z,9.70
2022-09-20T02:20:42.323Z,10.40
2022-09-20T02:21:42.311Z,6.00
2022-09-20T02:22:42.304Z,7.00
2022-09-20T02:23:42.538Z,7.80
2022-09-20T02:24:42.279Z,6.90
2022-09-20T02:25:42.261Z,5.90
2022-09-20T02:26:42.255Z,9.00
2022-09-20T02:27:42.256Z,9.10
2022-09-20T02:28:42.239Z,7.40
2022-09-20T02:29:42.439Z,6.60
2022-09-20T02:30:42.226Z,5.30
2022-09-20T02:31:42.297Z,8.90
2022-09-20T02:32:42.183Z,7.10
2022-09-20T02:33:42.188Z,9.10
2022-09-20T02:34:42.177Z,6.60
2022-09-20T02:35:42.388Z,7.20
2022-09-20T02:36:42.147Z,7.20
2022-09-20T02:37:42.127Z,8.10
2022-09-20T02:38:42.116Z,9.00
2022-09-20T02:39:42.104Z,6.80
2022-09-20T02:40:42.173Z,8.30
2022-09-20T02:41:42.395Z,8.10
2022-09-20T02:42:42.074Z,6.50
2022-09-20T02:43:42.316Z,5.70
2022-09-20T02:44:42.061Z,5.80
2022-09-20T02:45:42.117Z,7.80
2022-09-20T02:46:42.025Z,7.00
2022-09-20T02:47:42.030Z,6.10
2022-09-20T02:48:42.307Z,7.10
2022-09-20T02:49:42.005Z,7.10
2022-09-20T02:50:41.979Z,8.10
2022-09-20T02:51:41.981Z,6.90
2022-09-20T02:52:41.977Z,10.40
2022-09-20T02:53:41.937Z,9.40
2022-09-20T02:54:41.949Z,6.50
2022-09-20T02:55:41.917Z,8.70
2022-09-20T02:56:41.941Z,10.10
2022-09-20T02:57:41.909Z,6.90
2022-09-20T02:58:41.902Z,7.30
2022-09-20T02:59:41.879Z,7.40
2022-09-20T03:00:41.883Z,7.40
2022-09-20T03:01:41.944Z,7.20
2022-09-20T03:02:41.908Z,7.60
2022-09-20T03:03:41.842Z,9.10
2022-09-20T03:04:41.811Z,9.30
2022-09-20T03:05:41.822Z,7.60
2022-09-20T03:06:42.155Z,9.20
2022-09-20T03:07:41.818Z,9.10
2022-09-20T03:08:41.775Z,8.40
2022-09-20T03:09:41.759Z,9.00
2022-09-20T03:10:41.761Z,8.80
2022-09-20T03:11:41.744Z,9.10
2022-09-20T03:12:42.001Z,9.40
2022-09-20T03:13:41.717Z,7.10
2022-09-20T03:14:41.903Z,9.50
2022-09-20T03:15:41.733Z,7.20
2022-09-20T03:16:41.777Z,9.50
2022-09-20T03:17:41.674Z,7.30
2022-09-20T03:18:41.666Z,6.90
2022-09-20T03:19:41.643Z,10.30
2022-09-20T03:20:41.946Z,11.80
2022-09-20T03:21:41.615Z,8.50
2022-09-20T03:22:41.624Z,8.90
2022-09-20T03:23:41.593Z,10.90
2022-09-20T03:24:41.585Z,8.20
2022-09-20T03:25:41.586Z,11.00
2022-09-20T03:26:41.775Z,8.50
2022-09-20T03:27:41.550Z,10.00
2022-09-20T03:28:41.550Z,10.20
2022-09-20T03:29:41.527Z,8.00
2022-09-20T03:30:41.577Z,10.50
2022-09-20T03:31:41.586Z,9.70
2022-09-20T03:32:41.485Z,7.90
2022-09-20T03:33:41.499Z,12.00
2022-09-20T03:34:41.482Z,9.50
2022-09-20T03:35:41.469Z,9.20
2022-09-20T03:36:41.460Z,7.70
2022-09-20T03:37:41.627Z,9.60
2022-09-20T03:38:41.440Z,8.60
2022-09-20T03:39:41.407Z,9.80
2022-09-20T03:40:46.249Z,11.50
2022-09-20T03:41:42.398Z,7.80
2022-09-20T03:42:41.597Z,11.10
2022-09-20T03:43:41.396Z,7.30
2022-09-20T03:44:41.354Z,8.80
2022-09-20T03:45:41.387Z,9.00
2022-09-20T03:46:41.341Z,11.60
2022-09-20T03:47:41.332Z,8.80
2022-09-20T03:48:41.526Z,10.00
2022-09-20T03:49:41.299Z,8.70
2022-09-20T03:50:41.290Z,11.00
2022-09-20T03:51:41.292Z,8.40
2022-09-20T03:52:41.580Z,10.90
2022-09-20T03:53:41.251Z,7.00
2022-09-20T03:54:41.240Z,8.70
2022-09-20T03:55:41.221Z,9.30
2022-09-20T03:56:41.233Z,9.50
2022-09-20T03:57:41.224Z,8.70
2022-09-20T03:58:41.514Z,11.30
2022-09-20T03:59:41.181Z,11.10
2022-09-20T04:00:41.214Z,12.10
2022-09-20T04:01:41.176Z,7.80
2022-09-20T04:02:41.202Z,8.20
2022-09-20T04:03:41.132Z,9.40
2022-09-20T04:04:41.377Z,9.00
2022-09-20T04:05:41.125Z,8.60
2022-09-20T04:06:41.095Z,8.40
2022-09-20T04:07:41.091Z,10.20
2022-09-20T04:08:41.088Z,8.20
2022-09-20T04:09:41.277Z,9.40
2022-09-20T04:10:41.053Z,9.10
2022-09-20T04:11:41.045Z,10.60
2022-09-20T04:12:41.051Z,9.10
2022-09-20T04:13:41.024Z,7.40
2022-09-20T04:14:41.328Z,8.10
2022-09-20T04:15:41.004Z,7.90
2022-09-20T04:16:41.066Z,5.40
2022-09-20T04:17:40.976Z,8.00
2022-09-20T04:18:40.978Z,9.60
2022-09-20T04:19:40.971Z,8.60
2022-09-20T04:20:40.978Z,9.50
2022-09-20T04:21:40.947Z,9.10
2022-09-20T04:22:40.930Z,5.40
2022-09-20T04:23:41.127Z,7.10
2022-09-20T04:24:40.909Z,7.70
2022-09-20T04:25:44.034Z,7.50
2022-09-20T04:26:40.867Z,9.10
2022-09-20T04:27:40.872Z,9.50
2022-09-20T04:28:41.518Z,8.70
2022-09-20T04:29:41.050Z,7.80
2022-09-20T04:30:40.843Z,7.40
2022-09-20T04:31:40.888Z,7.00
2022-09-20T04:32:40.811Z,7.70
2022-09-20T04:33:40.804Z,7.50
2022-09-20T04:34:40.779Z,8.00
2022-09-20T04:35:40.979Z,7.20
2022-09-20T04:36:40.759Z,8.00
2022-09-20T04:37:40.751Z,8.40
2022-09-20T04:38:40.763Z,6.90
2022-09-20T04:39:40.720Z,6.20
2022-09-20T04:40:40.774Z,11.10
2022-09-20T04:42:08.370Z,9.10
2022-09-20T04:42:40.694Z,10.40
2022-09-20T04:43:40.911Z,8.90
2022-09-20T04:44:40.674Z,7.50
2022-09-20T04:45:40.711Z,8.60
2022-09-20T04:46:40.961Z,7.40
2022-09-20T04:47:40.632Z,11.40
2022-09-20T04:48:40.635Z,11.10
2022-09-20T04:49:40.623Z,8.20
2022-09-20T04:50:40.600Z,12.20
2022-09-20T04:51:40.597Z,11.20
2022-09-20T04:52:40.926Z,6.70
2022-09-20T04:53:40.577Z,9.30
2022-09-20T04:54:40.562Z,9.20
2022-09-20T04:55:40.554Z,8.40
2022-09-20T04:56:40.546Z,10.10
2022-09-20T04:57:40.515Z,10.20
2022-09-20T04:58:40.765Z,8.80
2022-09-20T04:59:40.513Z,8.30
2022-09-20T05:00:40.514Z,11.10
2022-09-20T05:01:40.577Z,9.90
2022-09-20T05:02:40.503Z,9.70
2022-09-20T05:03:40.468Z,10.30
2022-09-20T05:04:40.744Z,9.80
2022-09-20T05:05:40.447Z,9.70
2022-09-20T05:06:40.416Z,10.80
2022-09-20T05:07:40.405Z,10.40
2022-09-20T05:08:40.394Z,7.70
2022-09-20T05:09:40.698Z,8.70
2022-09-20T05:10:40.389Z,9.30
2022-09-20T05:11:40.682Z,10.70
2022-09-20T05:12:40.347Z,8.70
2022-09-20T05:13:40.328Z,8.00
2022-09-20T05:14:40.327Z,9.50
2022-09-20T05:15:40.307Z,10.50
2022-09-20T05:16:43.329Z,9.10
2022-09-20T05:17:40.309Z,7.70
2022-09-20T05:18:40.579Z,10.80
2022-09-20T05:19:40.567Z,9.00
2022-09-20T05:20:40.258Z,10.10
2022-09-20T05:21:40.252Z,8.90
2022-09-20T05:22:40.228Z,9.30
2022-09-20T05:23:40.554Z,12.60
2022-09-20T05:24:40.208Z,9.50
2022-09-20T05:25:40.218Z,9.20
2022-09-20T05:26:40.189Z,8.60
2022-09-20T05:27:40.192Z,11.60
2022-09-20T05:28:40.172Z,9.10
2022-09-20T05:29:40.450Z,10.80
2022-09-20T05:30:40.152Z,8.60
2022-09-20T05:31:40.189Z,8.50
2022-09-20T05:32:40.118Z,8.70
2022-09-20T05:33:40.100Z,7.40
2022-09-20T05:34:54.544Z,8.80
2022-09-20T05:35:40.079Z,7.40
2022-09-20T05:36:40.071Z,7.90
2022-09-20T05:37:40.095Z,9.40
2022-09-20T05:38:40.065Z,10.10
2022-09-20T05:39:40.076Z,10.50
2022-09-20T05:40:40.079Z,9.00
2022-09-20T05:41:40.029Z,7.90
2022-09-20T05:42:40.001Z,8.20
2022-09-20T05:43:40.233Z,12.60
2022-09-20T05:44:40.022Z,8.30
2022-09-20T05:45:43.279Z,7.50
2022-09-20T05:46:39.955Z,10.00
2022-09-20T05:47:39.954Z,9.30
2022-09-20T05:48:39.938Z,9.20
2022-09-20T05:49:39.913Z,8.50
2022-09-20T05:50:39.918Z,8.60
2022-09-20T05:51:40.225Z,9.10
2022-09-20T05:52:40.118Z,7.50
2022-09-20T05:53:39.888Z,12.10
2022-09-20T05:54:39.882Z,8.70
2022-09-20T05:55:40.100Z,10.60
2022-09-20T05:56:39.836Z,8.60
2022-09-20T05:57:39.824Z,11.80
2022-09-20T05:58:39.817Z,9.90
2022-09-20T05:59:39.796Z,10.90
2022-09-20T06:00:40.097Z,11.10
2022-09-20T06:01:39.791Z,10.10
2022-09-20T06:02:39.810Z,10.00
2022-09-20T06:03:39.761Z,9.10
2022-09-20T06:04:39.947Z,10.70
2022-09-20T06:05:39.727Z,8.70
2022-09-20T06:06:39.740Z,9.80
2022-09-20T06:07:39.722Z,7.80
2022-09-20T06:08:39.698Z,9.40
2022-09-20T06:09:40.013Z,10.20
2022-09-20T06:10:39.716Z,9.90
2022-09-20T06:11:39.794Z,10.80
2022-09-20T06:12:39.663Z,7.90
2022-09-20T06:13:39.652Z,9.20
2022-09-20T06:14:39.649Z,10.70
2022-09-20T06:15:39.634Z,11.10
2022-09-20T06:16:39.661Z,10.80
2022-09-20T06:17:39.603Z,10.60
2022-09-20T06:18:39.832Z,8.10
2022-09-20T06:19:39.561Z,10.90
2022-09-20T06:20:46.221Z,9.00
2022-09-20T06:21:39.554Z,10.20
2022-09-20T06:22:39.531Z,10.10
2022-09-20T06:23:39.534Z,9.00
2022-09-20T06:24:39.522Z,11.00
2022-09-20T06:25:39.492Z,14.30
2022-09-20T06:26:39.482Z,8.20
2022-09-20T06:27:39.488Z,11.50
2022-09-20T06:28:39.469Z,8.70
2022-09-20T06:29:39.740Z,9.10
2022-09-20T06:30:39.500Z,9.00
2022-09-20T06:31:39.426Z,13.60
2022-09-20T06:32:39.423Z,13.50
2022-09-20T06:33:39.403Z,13.80
2022-09-20T06:34:39.392Z,11.80
2022-09-20T06:35:39.408Z,11.20
2022-09-20T06:36:39.385Z,9.90
2022-09-20T06:37:39.368Z,9.50
2022-09-20T06:38:39.345Z,8.50
2022-09-20T06:39:39.656Z,8.00
2022-09-20T06:40:39.369Z,8.20
2022-09-20T06:41:39.326Z,8.40
2022-09-20T06:42:39.305Z,7.50
2022-09-20T06:43:39.288Z,8.10
2022-09-20T06:44:39.539Z,8.40
2022-09-20T06:45:39.309Z,7.80
2022-09-20T06:46:39.270Z,6.50
2022-09-20T06:47:39.236Z,7.90
2022-09-20T06:48:39.240Z,7.80
2022-09-20T06:49:39.230Z,11.80
2022-09-20T06:50:39.421Z,8.00
2022-09-20T06:51:39.204Z,7.40
2022-09-20T06:52:39.202Z,8.20
2022-09-20T06:53:39.167Z,8.10
2022-09-20T06:54:39.172Z,7.70
2022-09-20T06:55:39.159Z,8.60
2022-09-20T06:56:39.469Z,8.80
2022-09-20T06:57:39.162Z,7.70
2022-09-20T06:58:39.129Z,9.40
2022-09-20T06:59:39.111Z,8.60
2022-09-20T07:00:39.119Z,9.20
2022-09-20T07:01:39.113Z,9.70
2022-09-20T07:02:39.138Z,9.00
2022-09-20T07:04:00.065Z,8.50
2022-09-20T07:04:39.042Z,10.40
2022-09-20T07:05:39.030Z,7.60
2022-09-20T07:06:39.032Z,9.50
2022-09-20T07:07:39.225Z,10.00
2022-09-20T07:08:39.215Z,7.50
2022-09-20T07:09:38.982Z,7.00
2022-09-20T07:10:38.964Z,11.80
2022-09-20T07:11:38.961Z,6.70
2022-09-20T07:13:14.613Z,11.50
2022-09-20T07:13:38.941Z,10.40
2022-09-20T07:14:39.246Z,8.10
2022-09-20T07:15:39.159Z,11.90
2022-09-20T07:16:38.911Z,7.10
2022-09-20T07:17:38.893Z,8.10
2022-09-20T07:18:38.898Z,10.20
2022-09-20T07:19:38.878Z,7.70
2022-09-20T07:20:38.854Z,8.80
2022-09-20T07:21:39.046Z,10.30
2022-09-20T07:22:38.839Z,10.20
2022-09-20T07:23:38.837Z,10.20
2022-09-20T07:24:38.828Z,9.30
2022-09-20T07:25:39.129Z,9.00
2022-09-20T07:26:38.799Z,8.60
2022-09-20T07:27:38.798Z,10.20
2022-09-20T07:28:38.766Z,7.30
2022-09-20T07:29:38.771Z,9.30
2022-09-20T07:30:38.945Z,9.20
2022-09-20T07:31:38.778Z,8.50
2022-09-20T07:32:38.715Z,7.10
2022-09-20T07:33:38.706Z,10.20
2022-09-20T07:34:38.696Z,6.70
2022-09-20T07:36:05.350Z,10.00
2022-09-20T07:36:38.668Z,7.60
2022-09-20T07:37:38.671Z,10.50
2022-09-20T07:38:38.661Z,6.10
2022-09-20T07:39:38.674Z,8.50
2022-09-20T07:40:38.693Z,6.80
2022-09-20T07:41:38.820Z,7.90
2022-09-20T07:42:38.624Z,8.60
2022-09-20T07:43:38.589Z,8.70
2022-09-20T07:44:38.602Z,7.40
2022-09-20T07:45:38.652Z,9.60
2022-09-20T07:46:38.869Z,8.20
2022-09-20T07:47:38.550Z,8.20
2022-09-20T07:48:38.529Z,7.80
2022-09-20T07:49:38.520Z,9.40
2022-09-20T07:50:38.825Z,8.60
2022-09-20T07:51:38.493Z,6.80
2022-09-20T07:52:38.490Z,9.80
2022-09-20T07:53:38.492Z,10.80
2022-09-20T07:54:38.462Z,6.80
2022-09-20T07:55:38.488Z,4.90
2022-09-20T07:56:38.742Z,8.60
2022-09-20T07:57:38.453Z,6.70
2022-09-20T07:58:38.416Z,5.80
2022-09-20T07:59:38.416Z,7.20
2022-09-20T08:00:38.618Z,8.00
2022-09-20T08:01:38.385Z,5.90
2022-09-20T08:02:38.398Z,9.10
2022-09-20T08:03:38.367Z,9.40
2022-09-20T08:04:38.347Z,6.70
2022-09-20T08:05:38.335Z,7.60
2022-09-20T08:06:38.349Z,7.70
2022-09-20T08:07:38.305Z,8.70
2022-09-20T08:08:38.318Z,7.30
2022-09-20T08:09:38.308Z,7.50
2022-09-20T08:10:38.325Z,8.20
2022-09-20T08:11:38.267Z,9.10
2022-09-20T08:14:39.261Z,7.10
2022-09-20T08:15:38.226Z,6.40
2022-09-20T08:16:38.266Z,6.60
2022-09-20T08:17:38.421Z,6.20
2022-09-20T08:18:38.210Z,5.00
2022-09-20T08:19:38.188Z,7.30
2022-09-20T08:20:38.182Z,6.40
2022-09-20T08:21:38.172Z,5.00
2022-09-20T08:22:38.369Z,7.60
2022-09-20T08:23:38.140Z,7.90
2022-09-20T08:24:38.142Z,7.50
2022-09-20T08:25:38.192Z,7.90
2022-09-20T08:26:38.118Z,6.00
2022-09-20T08:27:38.337Z,8.90
2022-09-20T08:28:38.280Z,5.40
2022-09-20T08:29:38.075Z,8.80
2022-09-20T08:30:38.074Z,8.00
2022-09-20T08:31:38.089Z,5.80
2022-09-20T08:32:38.052Z,5.70
2022-09-20T08:33:38.223Z,6.00
2022-09-20T08:34:38.013Z,9.80
2022-09-20T08:35:38.413Z,8.10
2022-09-20T08:36:38.004Z,6.80
2022-09-20T08:37:38.274Z,9.80
2022-09-20T08:40:38.982Z,6.40
2022-09-20T08:41:37.944Z,7.20
2022-09-20T08:42:43.787Z,4.30
2022-09-20T08:43:39.744Z,6.60
2022-09-20T08:44:37.895Z,6.50
2022-09-20T08:45:37.898Z,7.90
2022-09-20T08:46:37.934Z,7.70
2022-09-20T08:47:37.857Z,8.70
2022-09-20T08:48:37.855Z,8.60
2022-09-20T08:49:38.079Z,6.90
2022-09-20T08:50:38.086Z,5.70
2022-09-20T08:51:37.830Z,7.50
2022-09-20T08:52:37.811Z,5.80
2022-09-20T08:53:37.788Z,7.20
2022-09-20T08:54:38.077Z,6.70
2022-09-20T08:55:37.826Z,5.60
2022-09-20T08:56:37.777Z,7.40
2022-09-20T08:57:37.752Z,5.10
2022-09-20T08:58:37.739Z,7.70
2022-09-20T08:59:37.719Z,6.10
2022-09-20T09:00:37.944Z,7.40
2022-09-20T09:01:37.699Z,6.50
2022-09-20T09:02:37.779Z,6.00
2022-09-20T09:03:37.692Z,5.30
2022-09-20T09:04:37.686Z,6.90
2022-09-20T09:05:37.980Z,5.90
2022-09-20T09:06:37.648Z,6.80
2022-09-20T09:07:37.621Z,7.00
2022-09-20T09:08:38.032Z,7.70
2022-09-20T09:09:37.989Z,5.40
2022-09-20T09:10:44.816Z,6.20
2022-09-20T09:11:38.901Z,6.40
2022-09-20T09:12:37.605Z,4.10
2022-09-20T09:13:37.573Z,6.50
2022-09-20T09:14:37.757Z,6.20
2022-09-20T09:15:37.540Z,6.60
2022-09-20T09:16:37.602Z,5.80
2022-09-20T09:17:37.514Z,8.60
2022-09-20T09:18:37.723Z,7.60
2022-09-20T09:19:37.497Z,5.20
2022-09-20T09:20:37.492Z,8.00
2022-09-20T09:21:37.497Z,6.50
2022-09-20T09:22:37.467Z,4.80
2022-09-20T09:23:37.460Z,7.10
2022-09-20T09:24:37.644Z,6.50
2022-09-20T09:25:37.440Z,7.40
2022-09-20T09:26:37.428Z,6.80
2022-09-20T09:27:37.416Z,5.30
2022-09-20T09:28:37.386Z,4.20
2022-09-20T09:29:37.375Z,7.50
2022-09-20T09:30:37.597Z,6.60
2022-09-20T09:31:37.409Z,7.00
2022-09-20T09:32:37.357Z,5.70
2022-09-20T09:33:37.334Z,8.40
2022-09-20T09:34:37.329Z,4.90
2022-09-20T09:35:37.318Z,6.50
2022-09-20T09:36:37.309Z,5.30
2022-09-20T09:37:37.278Z,6.10
2022-09-20T09:38:37.282Z,5.70
2022-09-20T09:39:37.258Z,5.10
2022-09-20T09:40:37.537Z,5.40
2022-09-20T09:41:37.229Z,4.80
2022-09-20T09:42:37.222Z,5.30
2022-09-20T09:43:37.212Z,4.10
2022-09-20T09:44:37.199Z,4.70
2022-09-20T09:45:44.574Z,3.10
2022-09-20T09:46:37.194Z,5.90
2022-09-20T09:47:37.164Z,4.40
2022-09-20T09:48:39.480Z,4.90
2022-09-20T09:49:37.157Z,3.40
2022-09-20T09:50:37.147Z,6.60
2022-09-20T09:51:37.417Z,3.60
2022-09-20T09:52:37.120Z,5.10
2022-09-20T09:53:37.100Z,2.70
2022-09-20T09:54:37.093Z,4.50
2022-09-20T09:55:37.076Z,4.10
2022-09-20T09:56:37.057Z,3.40
2022-09-20T09:57:37.366Z,4.80
2022-09-20T09:58:37.050Z,4.10
2022-09-20T09:59:37.032Z,3.50
2022-09-20T10:00:37.219Z,4.00
2022-09-20T10:01:37.044Z,3.40
2022-09-20T10:02:37.050Z,2.90
2022-09-20T10:03:36.991Z,3.70
2022-09-20T10:04:36.985Z,4.30
2022-09-20T10:05:36.950Z,4.80
2022-09-20T10:06:37.284Z,2.90
2022-09-20T10:07:36.930Z,5.00
2022-09-20T10:08:36.920Z,5.00
2022-09-20T10:09:36.923Z,4.50
2022-09-20T10:10:36.897Z,5.10
2022-09-20T10:11:36.895Z,5.10
2022-09-20T10:12:37.192Z,3.00
2022-09-20T10:13:40.485Z,3.90
2022-09-20T10:14:36.852Z,3.80
2022-09-20T10:15:36.865Z,4.40
2022-09-20T10:16:37.218Z,3.40
2022-09-20T10:17:36.813Z,4.30
2022-09-20T10:18:36.818Z,4.80
2022-09-20T10:19:36.794Z,4.40
2022-09-20T10:20:36.797Z,6.40
2022-09-20T10:21:36.786Z,5.40
2022-09-20T10:22:37.081Z,5.40
2022-09-20T10:24:03.227Z,4.70
2022-09-20T10:24:37.750Z,4.30
2022-09-20T10:25:36.746Z,5.30
2022-09-20T10:26:36.716Z,3.10
2022-09-20T10:27:36.710Z,3.30
2022-09-20T10:28:37.018Z,4.20
2022-09-20T10:29:36.691Z,3.60
2022-09-20T10:30:36.701Z,2.40
2022-09-20T10:31:36.723Z,4.10
2022-09-20T10:32:36.649Z,3.70
2022-09-20T10:33:36.642Z,4.30
2022-09-20T10:34:36.833Z,3.40
2022-09-20T10:35:36.612Z,2.80
2022-09-20T10:36:36.612Z,5.50
2022-09-20T10:37:36.589Z,2.10
2022-09-20T10:38:36.584Z,2.20
2022-09-20T10:39:36.583Z,3.50
2022-09-20T10:40:36.859Z,3.20
2022-09-20T10:41:36.538Z,2.00
2022-09-20T10:42:36.530Z,2.40
2022-09-20T10:43:36.512Z,3.10
2022-09-20T10:44:36.725Z,3.40
2022-09-20T10:46:08.275Z,3.70
2022-09-20T10:46:37.529Z,3.10
2022-09-20T10:47:36.473Z,4.00
2022-09-20T10:48:36.486Z,5.10
2022-09-20T10:49:36.443Z,3.10
2022-09-20T10:50:36.477Z,2.90
2022-09-20T10:51:36.436Z,2.80
2022-09-20T10:52:36.413Z,3.60
2022-09-20T10:53:36.402Z,5.60
2022-09-20T10:54:36.397Z,1.90
2022-09-20T10:55:36.374Z,4.30
2022-09-20T10:56:36.574Z,3.00
2022-09-20T10:57:36.354Z,4.70
2022-09-20T10:58:36.360Z,2.50
2022-09-20T10:59:36.335Z,3.30
2022-09-20T11:00:36.339Z,5.30
2022-09-20T11:01:36.593Z,1.90
2022-09-20T11:02:36.385Z,4.50
2022-09-20T11:03:36.287Z,5.30
2022-09-20T11:04:36.277Z,4.50
2022-09-20T11:05:36.269Z,5.30
2022-09-20T11:06:36.257Z,5.50
2022-09-20T11:07:36.499Z,5.60
2022-09-20T11:08:36.246Z,3.20
2022-09-20T11:09:36.220Z,3.40
2022-09-20T11:10:36.209Z,3.90
2022-09-20T11:11:36.199Z,2.60
2022-09-20T11:12:36.198Z,3.00
2022-09-20T11:13:36.192Z,2.60
2022-09-20T11:14:36.168Z,3.30
2022-09-20T11:15:36.150Z,4.00
2022-09-20T11:16:36.226Z,3.50
2022-09-20T11:17:36.432Z,4.30
2022-09-20T11:18:36.111Z,3.50
2022-09-20T11:19:36.115Z,2.30
2022-09-20T11:20:36.093Z,4.10
2022-09-20T11:21:36.082Z,2.80
2022-09-20T11:22:36.445Z,3.20
2022-09-20T11:23:36.074Z,3.40
2022-09-20T11:24:36.043Z,2.70
2022-09-20T11:25:36.047Z,3.50
2022-09-20T11:26:36.022Z,3.20
2022-09-20T11:27:36.023Z,3.80
2022-09-20T11:28:36.028Z,5.40
2022-09-20T11:29:36.007Z,3.00
2022-09-20T11:30:35.988Z,3.10
2022-09-20T11:31:36.341Z,3.60
2022-09-20T11:32:35.955Z,4.00
2022-09-20T11:33:41.196Z,4.40
2022-09-20T11:34:36.925Z,4.90
2022-09-20T11:35:35.946Z,5.50
2022-09-20T11:36:35.906Z,3.60
2022-09-20T11:37:35.920Z,3.80
2022-09-20T11:38:35.917Z,1.70
2022-09-20T11:39:36.186Z,3.40
2022-09-20T11:40:35.896Z,3.10
2022-09-20T11:41:35.871Z,1.90
2022-09-20T11:42:36.169Z,2.80
2022-09-20T11:43:35.828Z,2.20
2022-09-20T11:44:35.828Z,4.00
2022-09-20T11:45:35.863Z,3.10
2022-09-20T11:46:35.801Z,2.30
2022-09-20T11:47:55.028Z,1.40
2022-09-20T11:48:36.789Z,3.50
2022-09-20T11:49:35.770Z,2.10
2022-09-20T11:50:35.754Z,2.90
2022-09-20T11:51:35.739Z,2.90
2022-09-20T11:52:35.721Z,2.10
2022-09-20T11:53:36.926Z,1.80
2022-09-20T11:54:36.025Z,2.30
2022-09-20T11:55:35.703Z,2.50
2022-09-20T11:56:35.693Z,4.10
2022-09-20T11:57:35.664Z,1.90
2022-09-20T11:58:35.686Z,2.40
2022-09-20T11:59:35.657Z,2.10
2022-09-20T12:00:35.854Z,2.00
2022-09-20T12:01:35.933Z,1.60
2022-09-20T12:02:35.799Z,3.10
2022-09-20T12:03:35.669Z,3.20
2022-09-20T12:04:36.071Z,1.70
2022-09-20T12:05:35.588Z,3.60
2022-09-20T12:06:35.556Z,2.60
2022-09-20T12:07:35.805Z,3.80
2022-09-20T12:08:35.548Z,3.40
2022-09-20T12:09:35.541Z,3.90
2022-09-20T12:10:35.524Z,2.40
2022-09-20T12:11:35.536Z,3.00
2022-09-20T12:12:35.811Z,3.00
2022-09-20T12:13:35.490Z,1.80
2022-09-20T12:14:35.481Z,2.20
2022-09-20T12:15:35.457Z,3.20
2022-09-20T12:16:35.490Z,2.20
2022-09-20T12:17:35.454Z,2.70
2022-09-20T12:18:35.586Z,2.20
2022-09-20T12:19:35.422Z,3.10
2022-09-20T12:20:35.414Z,2.30
2022-09-20T12:21:35.411Z,2.00
2022-09-20T12:22:35.370Z,2.30
2022-09-20T12:23:35.504Z,2.90
2022-09-20T12:24:35.350Z,3.60
2022-09-20T12:25:35.353Z,2.30
2022-09-20T12:26:35.343Z,2.10
2022-09-20T12:27:35.311Z,2.60
2022-09-20T12:28:35.316Z,2.90
2022-09-20T12:29:35.520Z,3.10
2022-09-20T12:30:35.293Z,2.20
2022-09-20T12:31:35.343Z,2.40
2022-09-20T12:32:35.276Z,3.50
2022-09-20T12:33:35.248Z,2.30
2022-09-20T12:34:35.450Z,1.50
2022-09-20T12:35:35.244Z,2.10
2022-09-20T12:36:35.221Z,3.50
2022-09-20T12:37:35.218Z,3.10
2022-09-20T12:38:35.200Z,1.80
2022-09-20T12:39:35.196Z,1.60
2022-09-20T12:40:35.194Z,3.40
2022-09-20T12:41:35.167Z,1.50
2022-09-20T12:42:35.136Z,2.10
2022-09-20T12:43:35.127Z,3.10
2022-09-20T12:44:35.468Z,1.10
2022-09-20T12:45:35.163Z,2.10
2022-09-20T12:46:35.095Z,2.50
2022-09-20T12:47:35.201Z,1.70
2022-09-20T12:48:35.081Z,1.50
2022-09-20T12:49:35.351Z,2.40
2022-09-20T12:50:35.038Z,2.50
2022-09-20T12:51:35.053Z,3.90
2022-09-20T12:52:35.035Z,2.70
2022-09-20T12:53:35.023Z,1.50
2022-09-20T12:54:35.013Z,2.40
2022-09-20T12:55:35.023Z,3.60
2022-09-20T12:56:34.971Z,5.00
2022-09-20T12:57:34.969Z,4.70
2022-09-20T12:58:34.969Z,3.90
2022-09-20T12:59:34.942Z,3.00
2022-09-20T13:00:34.972Z,2.80
2022-09-20T13:01:35.229Z,3.70
2022-09-20T13:02:34.903Z,2.70
2022-09-20T13:03:34.917Z,2.00
2022-09-20T13:04:34.883Z,1.40
2022-09-20T13:05:34.872Z,2.10
2022-09-20T13:06:34.863Z,3.00
2022-09-20T13:07:36.427Z,2.10
2022-09-20T13:08:34.847Z,2.60
2022-09-20T13:09:34.824Z,1.40
2022-09-20T13:10:34.815Z,2.60
2022-09-20T13:11:34.805Z,2.30
2022-09-20T13:12:34.785Z,2.70
2022-09-20T13:13:35.025Z,2.40
2022-09-20T13:14:34.779Z,2.90
2022-09-20T13:15:34.756Z,2.70
2022-09-20T13:16:34.798Z,2.40
2022-09-20T13:17:34.749Z,2.50
2022-09-20T13:18:35.026Z,3.70
2022-09-20T13:19:34.707Z,3.10